Terminal Aerodrome Forecast
Issued by NWS

Home | Current Version | Previous Version | Graphics & Text | Print | Product List | Glossary On
Versions: 1 2 3 4 5 6 7 8 9 10 11 12 13 14 15 16 17 18
704
FTUS43 KBIS 201723
TAFJMS
TAF
KJMS 201723Z 2018/2118 29010KT P6SM SCT080
     FM210000 32010KT P6SM SCT090
     FM210100 33009KT P6SM BKN120
     FM210700 36010KT P6SM SCT250
     FM211200 01008KT P6SM BKN100=

USA.gov is the U.S. government's official web portal to all federal, state and local government web resources and services.